sensor_id;sensor_type;location;lat;lon;timestamp;P1;durP1;ratioP1;P2;durP2;ratioP2
3006;SDS011;1513;47.650;10.720;2023-06-14T00:02:10;7.03;;;4.60;;
3006;SDS011;1513;47.650;10.720;2023-06-14T00:04:36;5.80;;;4.50;;
3006;SDS011;1513;47.650;10.720;2023-06-14T00:07:04;8.97;;;4.63;;
3006;SDS011;1513;47.650;10.720;2023-06-14T00:09:33;8.53;;;5.27;;
3006;SDS011;1513;47.650;10.720;2023-06-14T00:12:00;6.30;;;4.63;;
3006;SDS011;1513;47.650;10.720;2023-06-14T00:14:26;7.83;;;4.40;;
3006;SDS011;1513;47.650;10.720;2023-06-14T00:16:53;8.77;;;5.33;;
3006;SDS011;1513;47.650;10.720;2023-06-14T00:19:24;7.30;;;4.87;;
3006;SDS011;1513;47.650;10.720;2023-06-14T00:21:50;6.33;;;4.53;;
3006;SDS011;1513;47.650;10.720;2023-06-14T00:24:18;10.23;;;4.83;;
3006;SDS011;1513;47.650;10.720;2023-06-14T00:26:44;6.27;;;4.43;;
3006;SDS011;1513;47.650;10.720;2023-06-14T00:29:11;5.97;;;4.93;;
3006;SDS011;1513;47.650;10.720;2023-06-14T00:31:37;7.90;;;4.43;;
3006;SDS011;1513;47.650;10.720;2023-06-14T00:34:03;9.97;;;5.10;;
3006;SDS011;1513;47.650;10.720;2023-06-14T00:36:30;9.17;;;5.10;;
3006;SDS011;1513;47.650;10.720;2023-06-14T00:38:56;6.40;;;3.97;;
3006;SDS011;1513;47.650;10.720;2023-06-14T00:41:22;6.93;;;4.50;;
3006;SDS011;1513;47.650;10.720;2023-06-14T00:43:48;10.33;;;5.90;;
3006;SDS011;1513;47.650;10.720;2023-06-14T00:46:15;6.47;;;4.80;;
3006;SDS011;1513;47.650;10.720;2023-06-14T00:48:42;5.47;;;4.30;;
3006;SDS011;1513;47.650;10.720;2023-06-14T00:51:08;6.20;;;4.60;;
3006;SDS011;1513;47.650;10.720;2023-06-14T00:53:35;6.77;;;4.77;;
3006;SDS011;1513;47.650;10.720;2023-06-14T00:56:01;7.10;;;5.40;;
3006;SDS011;1513;47.650;10.720;2023-06-14T00:58:28;7.13;;;5.03;;
3006;SDS011;1513;47.650;10.720;2023-06-14T01:00:54;5.70;;;4.33;;
3006;SDS011;1513;47.650;10.720;2023-06-14T01:03:21;8.70;;;5.50;;
3006;SDS011;1513;47.650;10.720;2023-06-14T01:05:49;5.60;;;4.40;;
3006;SDS011;1513;47.650;10.720;2023-06-14T01:08:24;8.27;;;4.60;;
3006;SDS011;1513;47.650;10.720;2023-06-14T01:11:28;6.87;;;4.80;;
3006;SDS011;1513;47.650;10.720;2023-06-14T01:13:58;7.90;;;4.70;;
3006;SDS011;1513;47.650;10.720;2023-06-14T01:16:27;8.20;;;4.80;;
3006;SDS011;1513;47.650;10.720;2023-06-14T01:18:54;9.00;;;5.13;;
3006;SDS011;1513;47.650;10.720;2023-06-14T01:21:23;7.20;;;5.00;;
3006;SDS011;1513;47.650;10.720;2023-06-14T01:23:51;8.03;;;4.33;;
3006;SDS011;1513;47.650;10.720;2023-06-14T01:26:21;12.33;;;4.80;;
3006;SDS011;1513;47.650;10.720;2023-06-14T01:28:48;9.57;;;5.93;;
3006;SDS011;1513;47.650;10.720;2023-06-14T01:31:19;7.57;;;5.23;;
3006;SDS011;1513;47.650;10.720;2023-06-14T01:33:49;7.90;;;5.10;;
3006;SDS011;1513;47.650;10.720;2023-06-14T01:36:17;7.33;;;4.80;;
3006;SDS011;1513;47.650;10.720;2023-06-14T01:38:45;10.10;;;4.90;;
3006;SDS011;1513;47.650;10.720;2023-06-14T01:41:14;6.60;;;4.70;;
3006;SDS011;1513;47.650;10.720;2023-06-14T01:43:41;6.60;;;4.50;;
3006;SDS011;1513;47.650;10.720;2023-06-14T01:46:08;10.20;;;4.90;;
3006;SDS011;1513;47.650;10.720;2023-06-14T01:48:35;6.20;;;4.20;;
3006;SDS011;1513;47.650;10.720;2023-06-14T01:51:02;6.43;;;4.80;;
3006;SDS011;1513;47.650;10.720;2023-06-14T01:53:29;7.53;;;4.50;;
3006;SDS011;1513;47.650;10.720;2023-06-14T01:55:55;7.63;;;4.20;;
3006;SDS011;1513;47.650;10.720;2023-06-14T01:58:21;6.87;;;4.17;;
3006;SDS011;1513;47.650;10.720;2023-06-14T02:00:49;7.60;;;4.90;;
3006;SDS011;1513;47.650;10.720;2023-06-14T02:03:16;8.07;;;5.00;;
3006;SDS011;1513;47.650;10.720;2023-06-14T02:05:44;7.07;;;5.00;;
3006;SDS011;1513;47.650;10.720;2023-06-14T02:08:11;12.70;;;5.83;;
3006;SDS011;1513;47.650;10.720;2023-06-14T02:10:37;10.17;;;4.93;;
3006;SDS011;1513;47.650;10.720;2023-06-14T02:13:03;8.50;;;5.60;;
3006;SDS011;1513;47.650;10.720;2023-06-14T02:15:30;10.70;;;5.30;;
3006;SDS011;1513;47.650;10.720;2023-06-14T02:18:00;11.53;;;5.27;;
3006;SDS011;1513;47.650;10.720;2023-06-14T02:20:27;10.47;;;5.73;;
3006;SDS011;1513;47.650;10.720;2023-06-14T02:22:55;10.00;;;5.67;;
3006;SDS011;1513;47.650;10.720;2023-06-14T02:25:22;11.63;;;6.00;;
3006;SDS011;1513;47.650;10.720;2023-06-14T02:27:48;13.23;;;6.97;;
3006;SDS011;1513;47.650;10.720;2023-06-14T02:30:15;8.50;;;4.70;;
3006;SDS011;1513;47.650;10.720;2023-06-14T02:32:41;8.93;;;4.83;;
3006;SDS011;1513;47.650;10.720;2023-06-14T02:35:08;11.73;;;5.80;;
3006;SDS011;1513;47.650;10.720;2023-06-14T02:37:35;9.87;;;5.43;;
3006;SDS011;1513;47.650;10.720;2023-06-14T02:40:01;9.70;;;5.60;;
3006;SDS011;1513;47.650;10.720;2023-06-14T02:42:30;8.43;;;5.30;;
3006;SDS011;1513;47.650;10.720;2023-06-14T02:44:56;9.10;;;5.00;;
3006;SDS011;1513;47.650;10.720;2023-06-14T02:47:23;10.17;;;4.80;;
3006;SDS011;1513;47.650;10.720;2023-06-14T02:49:49;8.10;;;4.60;;
3006;SDS011;1513;47.650;10.720;2023-06-14T02:52:16;8.87;;;5.70;;
3006;SDS011;1513;47.650;10.720;2023-06-14T02:54:42;8.17;;;4.60;;
3006;SDS011;1513;47.650;10.720;2023-06-14T02:57:10;12.23;;;6.43;;
3006;SDS011;1513;47.650;10.720;2023-06-14T02:59:37;9.77;;;5.37;;
3006;SDS011;1513;47.650;10.720;2023-06-14T03:02:04;9.40;;;5.17;;
3006;SDS011;1513;47.650;10.720;2023-06-14T03:04:32;7.63;;;5.10;;
3006;SDS011;1513;47.650;10.720;2023-06-14T03:07:06;8.07;;;5.17;;
3006;SDS011;1513;47.650;10.720;2023-06-14T03:09:38;6.87;;;4.80;;
3006;SDS011;1513;47.650;10.720;2023-06-14T03:12:07;7.67;;;5.63;;
3006;SDS011;1513;47.650;10.720;2023-06-14T03:14:35;10.70;;;5.20;;
3006;SDS011;1513;47.650;10.720;2023-06-14T03:17:02;8.73;;;5.03;;
3006;SDS011;1513;47.650;10.720;2023-06-14T03:19:30;7.63;;;4.80;;
3006;SDS011;1513;47.650;10.720;2023-06-14T03:21:57;10.93;;;6.17;;
3006;SDS011;1513;47.650;10.720;2023-06-14T03:24:25;10.10;;;5.90;;
3006;SDS011;1513;47.650;10.720;2023-06-14T03:26:56;9.60;;;5.37;;
3006;SDS011;1513;47.650;10.720;2023-06-14T03:29:23;11.60;;;4.87;;
3006;SDS011;1513;47.650;10.720;2023-06-14T03:32:00;10.43;;;5.20;;
3006;SDS011;1513;47.650;10.720;2023-06-14T03:34:36;10.70;;;5.77;;
3006;SDS011;1513;47.650;10.720;2023-06-14T03:37:09;13.67;;;6.07;;
3006;SDS011;1513;47.650;10.720;2023-06-14T03:39:35;8.23;;;5.63;;
3006;SDS011;1513;47.650;10.720;2023-06-14T03:42:02;11.93;;;6.13;;
3006;SDS011;1513;47.650;10.720;2023-06-14T03:44:30;10.03;;;5.40;;
3006;SDS011;1513;47.650;10.720;2023-06-14T03:46:56;11.97;;;5.73;;
3006;SDS011;1513;47.650;10.720;2023-06-14T03:49:24;9.27;;;5.57;;
3006;SDS011;1513;47.650;10.720;2023-06-14T03:51:51;9.87;;;5.47;;
3006;SDS011;1513;47.650;10.720;2023-06-14T03:54:19;10.20;;;5.27;;
3006;SDS011;1513;47.650;10.720;2023-06-14T03:56:48;13.13;;;6.43;;
3006;SDS011;1513;47.650;10.720;2023-06-14T03:59:14;8.90;;;5.43;;
3006;SDS011;1513;47.650;10.720;2023-06-14T04:01:40;8.17;;;5.60;;
3006;SDS011;1513;47.650;10.720;2023-06-14T04:04:10;8.40;;;5.20;;
3006;SDS011;1513;47.650;10.720;2023-06-14T04:06:36;9.53;;;4.50;;
3006;SDS011;1513;47.650;10.720;2023-06-14T04:09:04;6.20;;;4.47;;
3006;SDS011;1513;47.650;10.720;2023-06-14T04:11:30;5.47;;;4.47;;
3006;SDS011;1513;47.650;10.720;2023-06-14T04:13:58;6.17;;;4.10;;
3006;SDS011;1513;47.650;10.720;2023-06-14T04:16:25;7.83;;;5.00;;
3006;SDS011;1513;47.650;10.720;2023-06-14T04:18:52;9.77;;;5.13;;
3006;SDS011;1513;47.650;10.720;2023-06-14T04:21:20;8.63;;;4.63;;
3006;SDS011;1513;47.650;10.720;2023-06-14T04:23:51;8.63;;;5.60;;
3006;SDS011;1513;47.650;10.720;2023-06-14T04:26:20;8.13;;;5.67;;
3006;SDS011;1513;47.650;10.720;2023-06-14T04:28:49;6.30;;;5.30;;
3006;SDS011;1513;47.650;10.720;2023-06-14T04:31:16;6.30;;;5.00;;
3006;SDS011;1513;47.650;10.720;2023-06-14T04:33:43;5.17;;;4.50;;
3006;SDS011;1513;47.650;10.720;2023-06-14T04:36:15;9.57;;;5.80;;
3006;SDS011;1513;47.650;10.720;2023-06-14T04:38:45;6.90;;;5.70;;
3006;SDS011;1513;47.650;10.720;2023-06-14T04:41:12;9.57;;;5.80;;
3006;SDS011;1513;47.650;10.720;2023-06-14T04:43:41;13.33;;;7.37;;
3006;SDS011;1513;47.650;10.720;2023-06-14T04:46:08;10.00;;;7.30;;
3006;SDS011;1513;47.650;10.720;2023-06-14T04:48:40;3.70;;;3.40;;
3006;SDS011;1513;47.650;10.720;2023-06-14T04:51:09;6.10;;;5.50;;
3006;SDS011;1513;47.650;10.720;2023-06-14T04:53:35;8.70;;;6.23;;
3006;SDS011;1513;47.650;10.720;2023-06-14T04:56:03;8.00;;;6.00;;
3006;SDS011;1513;47.650;10.720;2023-06-14T04:58:31;7.33;;;5.80;;
3006;SDS011;1513;47.650;10.720;2023-06-14T05:00:58;8.90;;;6.50;;
3006;SDS011;1513;47.650;10.720;2023-06-14T05:03:25;10.10;;;6.90;;
3006;SDS011;1513;47.650;10.720;2023-06-14T05:05:52;9.60;;;6.00;;
3006;SDS011;1513;47.650;10.720;2023-06-14T05:08:20;7.47;;;6.33;;
3006;SDS011;1513;47.650;10.720;2023-06-14T05:10:49;16.20;;;7.00;;
3006;SDS011;1513;47.650;10.720;2023-06-14T05:13:16;6.70;;;5.80;;
3006;SDS011;1513;47.650;10.720;2023-06-14T05:15:44;11.13;;;6.70;;
3006;SDS011;1513;47.650;10.720;2023-06-14T05:18:10;7.57;;;5.80;;
3006;SDS011;1513;47.650;10.720;2023-06-14T05:20:38;11.00;;;5.73;;
3006;SDS011;1513;47.650;10.720;2023-06-14T05:23:06;6.80;;;5.27;;
3006;SDS011;1513;47.650;10.720;2023-06-14T05:25:34;6.70;;;5.73;;
3006;SDS011;1513;47.650;10.720;2023-06-14T05:28:00;6.97;;;5.97;;
3006;SDS011;1513;47.650;10.720;2023-06-14T05:30:28;6.83;;;5.97;;
3006;SDS011;1513;47.650;10.720;2023-06-14T05:32:55;7.10;;;6.40;;
3006;SDS011;1513;47.650;10.720;2023-06-14T05:35:22;7.53;;;6.70;;
3006;SDS011;1513;47.650;10.720;2023-06-14T05:37:48;7.93;;;5.40;;
3006;SDS011;1513;47.650;10.720;2023-06-14T05:40:15;6.40;;;4.70;;
3006;SDS011;1513;47.650;10.720;2023-06-14T05:42:42;5.90;;;5.30;;
3006;SDS011;1513;47.650;10.720;2023-06-14T05:45:08;5.47;;;4.53;;
3006;SDS011;1513;47.650;10.720;2023-06-14T05:47:35;5.87;;;4.63;;
3006;SDS011;1513;47.650;10.720;2023-06-14T05:50:01;5.20;;;4.70;;
3006;SDS011;1513;47.650;10.720;2023-06-14T05:52:28;5.50;;;4.97;;
3006;SDS011;1513;47.650;10.720;2023-06-14T05:54:54;4.83;;;4.33;;
3006;SDS011;1513;47.650;10.720;2023-06-14T05:57:21;5.60;;;4.93;;
3006;SDS011;1513;47.650;10.720;2023-06-14T05:59:47;5.50;;;5.00;;
3006;SDS011;1513;47.650;10.720;2023-06-14T06:02:14;8.60;;;4.30;;
3006;SDS011;1513;47.650;10.720;2023-06-14T06:04:40;4.80;;;4.30;;
3006;SDS011;1513;47.650;10.720;2023-06-14T06:07:06;8.10;;;5.20;;
3006;SDS011;1513;47.650;10.720;2023-06-14T06:09:33;5.37;;;4.93;;
3006;SDS011;1513;47.650;10.720;2023-06-14T06:11:59;7.23;;;4.17;;
3006;SDS011;1513;47.650;10.720;2023-06-14T06:14:25;5.60;;;5.00;;
3006;SDS011;1513;47.650;10.720;2023-06-14T06:16:53;4.80;;;4.40;;
3006;SDS011;1513;47.650;10.720;2023-06-14T06:19:19;8.60;;;4.83;;
3006;SDS011;1513;47.650;10.720;2023-06-14T06:21:46;7.33;;;4.07;;
3006;SDS011;1513;47.650;10.720;2023-06-14T06:24:12;5.50;;;4.33;;
3006;SDS011;1513;47.650;10.720;2023-06-14T06:26:39;4.87;;;4.47;;
3006;SDS011;1513;47.650;10.720;2023-06-14T06:29:05;4.47;;;4.07;;
3006;SDS011;1513;47.650;10.720;2023-06-14T06:31:31;5.60;;;4.38;;
3006;SDS011;1513;47.650;10.720;2023-06-14T06:33:57;6.20;;;4.40;;
3006;SDS011;1513;47.650;10.720;2023-06-14T06:36:24;4.85;;;4.35;;
3006;SDS011;1513;47.650;10.720;2023-06-14T06:38:50;6.82;;;4.55;;
3006;SDS011;1513;47.650;10.720;2023-06-14T06:41:16;4.30;;;3.90;;
3006;SDS011;1513;47.650;10.720;2023-06-14T06:43:43;8.15;;;4.25;;
3006;SDS011;1513;47.650;10.720;2023-06-14T06:46:09;3.88;;;3.58;;
3006;SDS011;1513;47.650;10.720;2023-06-14T06:48:36;4.35;;;3.92;;
3006;SDS011;1513;47.650;10.720;2023-06-14T06:51:02;4.95;;;4.47;;
3006;SDS011;1513;47.650;10.720;2023-06-14T06:53:28;5.22;;;4.07;;
3006;SDS011;1513;47.650;10.720;2023-06-14T06:55:55;8.27;;;3.97;;
3006;SDS011;1513;47.650;10.720;2023-06-14T06:58:21;7.15;;;4.20;;
3006;SDS011;1513;47.650;10.720;2023-06-14T07:00:47;4.40;;;4.10;;
3006;SDS011;1513;47.650;10.720;2023-06-14T07:03:14;5.65;;;3.83;;
3006;SDS011;1513;47.650;10.720;2023-06-14T07:05:40;4.43;;;4.00;;
3006;SDS011;1513;47.650;10.720;2023-06-14T07:08:07;4.43;;;4.03;;
3006;SDS011;1513;47.650;10.720;2023-06-14T07:10:33;4.45;;;4.03;;
3006;SDS011;1513;47.650;10.720;2023-06-14T07:13:03;4.20;;;3.80;;
3006;SDS011;1513;47.650;10.720;2023-06-14T07:15:29;4.20;;;3.50;;
3006;SDS011;1513;47.650;10.720;2023-06-14T07:17:55;4.22;;;3.83;;
3006;SDS011;1513;47.650;10.720;2023-06-14T07:20:24;4.43;;;4.03;;
3006;SDS011;1513;47.650;10.720;2023-06-14T07:22:51;3.90;;;3.33;;
3006;SDS011;1513;47.650;10.720;2023-06-14T07:25:17;4.18;;;3.78;;
3006;SDS011;1513;47.650;10.720;2023-06-14T07:27:45;4.03;;;3.60;;
3006;SDS011;1513;47.650;10.720;2023-06-14T07:30:12;4.60;;;3.90;;
3006;SDS011;1513;47.650;10.720;2023-06-14T07:32:38;4.10;;;3.80;;
3006;SDS011;1513;47.650;10.720;2023-06-14T07:35:05;5.35;;;4.28;;
3006;SDS011;1513;47.650;10.720;2023-06-14T07:37:31;4.93;;;4.25;;
3006;SDS011;1513;47.650;10.720;2023-06-14T07:39:58;4.32;;;3.92;;
3006;SDS011;1513;47.650;10.720;2023-06-14T07:42:24;4.20;;;3.80;;
3006;SDS011;1513;47.650;10.720;2023-06-14T07:44:51;4.40;;;4.00;;
3006;SDS011;1513;47.650;10.720;2023-06-14T07:47:19;5.20;;;4.15;;
3006;SDS011;1513;47.650;10.720;2023-06-14T07:49:45;3.90;;;3.65;;
3006;SDS011;1513;47.650;10.720;2023-06-14T07:52:11;4.00;;;3.70;;
3006;SDS011;1513;47.650;10.720;2023-06-14T07:54:38;4.47;;;4.17;;
3006;SDS011;1513;47.650;10.720;2023-06-14T07:57:06;4.37;;;3.97;;
3006;SDS011;1513;47.650;10.720;2023-06-14T07:59:32;4.17;;;3.83;;
3006;SDS011;1513;47.650;10.720;2023-06-14T08:01:58;3.77;;;3.47;;
3006;SDS011;1513;47.650;10.720;2023-06-14T08:04:25;5.07;;;3.87;;
3006;SDS011;1513;47.650;10.720;2023-06-14T08:06:51;4.87;;;4.03;;
3006;SDS011;1513;47.650;10.720;2023-06-14T08:09:17;5.60;;;3.93;;
3006;SDS011;1513;47.650;10.720;2023-06-14T08:11:44;6.23;;;3.93;;
3006;SDS011;1513;47.650;10.720;2023-06-14T08:14:10;4.47;;;4.00;;
3006;SDS011;1513;47.650;10.720;2023-06-14T08:16:36;5.03;;;4.20;;
3006;SDS011;1513;47.650;10.720;2023-06-14T08:19:03;5.33;;;3.73;;
3006;SDS011;1513;47.650;10.720;2023-06-14T08:21:29;5.90;;;4.13;;
3006;SDS011;1513;47.650;10.720;2023-06-14T08:23:58;8.57;;;4.03;;
3006;SDS011;1513;47.650;10.720;2023-06-14T08:26:25;4.90;;;4.30;;
3006;SDS011;1513;47.650;10.720;2023-06-14T08:28:54;5.53;;;4.13;;
3006;SDS011;1513;47.650;10.720;2023-06-14T08:31:21;4.57;;;4.20;;
3006;SDS011;1513;47.650;10.720;2023-06-14T08:33:47;4.47;;;4.07;;
3006;SDS011;1513;47.650;10.720;2023-06-14T08:36:14;8.63;;;4.70;;
3006;SDS011;1513;47.650;10.720;2023-06-14T08:38:40;10.03;;;4.70;;
3006;SDS011;1513;47.650;10.720;2023-06-14T08:41:06;8.47;;;5.20;;
3006;SDS011;1513;47.650;10.720;2023-06-14T08:43:34;7.63;;;4.70;;
3006;SDS011;1513;47.650;10.720;2023-06-14T08:46:01;6.97;;;4.63;;
3006;SDS011;1513;47.650;10.720;2023-06-14T08:48:29;6.77;;;4.67;;
3006;SDS011;1513;47.650;10.720;2023-06-14T08:50:59;8.37;;;4.77;;
3006;SDS011;1513;47.650;10.720;2023-06-14T08:53:32;8.53;;;5.10;;
3006;SDS011;1513;47.650;10.720;2023-06-14T08:56:02;8.07;;;5.33;;
3006;SDS011;1513;47.650;10.720;2023-06-14T08:58:33;7.07;;;4.93;;
3006;SDS011;1513;47.650;10.720;2023-06-14T09:01:01;9.90;;;5.00;;
3006;SDS011;1513;47.650;10.720;2023-06-14T09:03:28;8.43;;;5.47;;
3006;SDS011;1513;47.650;10.720;2023-06-14T09:05:56;7.43;;;6.33;;
3006;SDS011;1513;47.650;10.720;2023-06-14T09:08:24;6.43;;;5.10;;
3006;SDS011;1513;47.650;10.720;2023-06-14T09:10:51;5.50;;;5.00;;
3006;SDS011;1513;47.650;10.720;2023-06-14T09:13:17;5.93;;;4.77;;
3006;SDS011;1513;47.650;10.720;2023-06-14T09:15:44;7.10;;;4.60;;
3006;SDS011;1513;47.650;10.720;2023-06-14T09:18:11;7.40;;;5.43;;
3006;SDS011;1513;47.650;10.720;2023-06-14T09:20:37;7.67;;;5.53;;
3006;SDS011;1513;47.650;10.720;2023-06-14T09:23:04;5.87;;;4.80;;
3006;SDS011;1513;47.650;10.720;2023-06-14T09:25:30;6.20;;;4.80;;
3006;SDS011;1513;47.650;10.720;2023-06-14T09:27:56;9.07;;;5.50;;
3006;SDS011;1513;47.650;10.720;2023-06-14T09:30:23;5.97;;;5.13;;
3006;SDS011;1513;47.650;10.720;2023-06-14T09:32:49;5.53;;;5.03;;
3006;SDS011;1513;47.650;10.720;2023-06-14T09:35:17;6.80;;;5.00;;
3006;SDS011;1513;47.650;10.720;2023-06-14T09:37:43;5.63;;;4.50;;
3006;SDS011;1513;47.650;10.720;2023-06-14T09:40:10;7.83;;;6.47;;
3006;SDS011;1513;47.650;10.720;2023-06-14T09:42:37;6.07;;;5.57;;
3006;SDS011;1513;47.650;10.720;2023-06-14T09:45:03;7.80;;;5.73;;
3006;SDS011;1513;47.650;10.720;2023-06-14T09:47:30;7.43;;;5.87;;
3006;SDS011;1513;47.650;10.720;2023-06-14T09:49:56;6.37;;;5.53;;
3006;SDS011;1513;47.650;10.720;2023-06-14T09:52:24;6.60;;;4.77;;
3006;SDS011;1513;47.650;10.720;2023-06-14T09:54:52;5.67;;;5.17;;
3006;SDS011;1513;47.650;10.720;2023-06-14T09:57:22;5.50;;;4.27;;
3006;SDS011;1513;47.650;10.720;2023-06-14T09:59:52;6.77;;;4.73;;
3006;SDS011;1513;47.650;10.720;2023-06-14T10:02:25;10.10;;;5.20;;
3006;SDS011;1513;47.650;10.720;2023-06-14T10:05:06;8.33;;;4.87;;
3006;SDS011;1513;47.650;10.720;2023-06-14T10:08:19;9.87;;;5.43;;
3006;SDS011;1513;47.650;10.720;2023-06-14T10:10:30;6.27;;;5.60;;
3006;SDS011;1513;47.650;10.720;2023-06-14T10:12:57;6.33;;;5.70;;
3006;SDS011;1513;47.650;10.720;2023-06-14T10:15:27;8.80;;;4.97;;
3006;SDS011;1513;47.650;10.720;2023-06-14T10:18:03;8.20;;;5.43;;
3006;SDS011;1513;47.650;10.720;2023-06-14T10:20:45;6.43;;;5.27;;
3006;SDS011;1513;47.650;10.720;2023-06-14T10:23:17;5.20;;;4.70;;
3006;SDS011;1513;47.650;10.720;2023-06-14T10:25:49;5.77;;;4.37;;
3006;SDS011;1513;47.650;10.720;2023-06-14T10:31:02;5.30;;;4.77;;
3006;SDS011;1513;47.650;10.720;2023-06-14T10:33:35;5.60;;;4.97;;
3006;SDS011;1513;47.650;10.720;2023-06-14T10:36:28;6.87;;;5.23;;
3006;SDS011;1513;47.650;10.720;2023-06-14T10:41:30;6.77;;;5.60;;
3006;SDS011;1513;47.650;10.720;2023-06-14T10:46:47;6.23;;;5.13;;
3006;SDS011;1513;47.650;10.720;2023-06-14T10:49:18;5.30;;;4.80;;
3006;SDS011;1513;47.650;10.720;2023-06-14T10:51:45;11.83;;;5.30;;
3006;SDS011;1513;47.650;10.720;2023-06-14T10:54:15;7.10;;;5.50;;
3006;SDS011;1513;47.650;10.720;2023-06-14T10:56:51;10.77;;;5.67;;
3006;SDS011;1513;47.650;10.720;2023-06-14T10:59:18;7.87;;;5.37;;
3006;SDS011;1513;47.650;10.720;2023-06-14T11:01:58;7.70;;;4.50;;
3006;SDS011;1513;47.650;10.720;2023-06-14T11:04:49;5.33;;;4.73;;
3006;SDS011;1513;47.650;10.720;2023-06-14T11:12:48;5.43;;;4.93;;
3006;SDS011;1513;47.650;10.720;2023-06-14T11:15:14;9.80;;;5.17;;
3006;SDS011;1513;47.650;10.720;2023-06-14T11:17:53;7.77;;;5.17;;
3006;SDS011;1513;47.650;10.720;2023-06-14T11:20:19;6.03;;;5.07;;
3006;SDS011;1513;47.650;10.720;2023-06-14T11:22:46;9.80;;;5.53;;
3006;SDS011;1513;47.650;10.720;2023-06-14T11:25:13;10.83;;;5.90;;
3006;SDS011;1513;47.650;10.720;2023-06-14T11:27:43;6.03;;;5.20;;
3006;SDS011;1513;47.650;10.720;2023-06-14T11:30:10;9.33;;;5.17;;
3006;SDS011;1513;47.650;10.720;2023-06-14T11:32:38;6.90;;;4.90;;
3006;SDS011;1513;47.650;10.720;2023-06-14T11:35:04;9.47;;;5.17;;
3006;SDS011;1513;47.650;10.720;2023-06-14T11:37:31;5.50;;;4.97;;
3006;SDS011;1513;47.650;10.720;2023-06-14T11:39:58;6.20;;;5.10;;
3006;SDS011;1513;47.650;10.720;2023-06-14T11:42:28;8.07;;;4.87;;
3006;SDS011;1513;47.650;10.720;2023-06-14T11:44:55;5.13;;;4.57;;
3006;SDS011;1513;47.650;10.720;2023-06-14T11:47:21;8.10;;;5.20;;
3006;SDS011;1513;47.650;10.720;2023-06-14T11:49:48;5.30;;;4.43;;
3006;SDS011;1513;47.650;10.720;2023-06-14T11:52:15;6.67;;;5.10;;
3006;SDS011;1513;47.650;10.720;2023-06-14T11:54:42;6.60;;;5.27;;
3006;SDS011;1513;47.650;10.720;2023-06-14T11:57:09;9.80;;;4.43;;
3006;SDS011;1513;47.650;10.720;2023-06-14T11:59:39;6.70;;;4.67;;
3006;SDS011;1513;47.650;10.720;2023-06-14T12:02:06;5.53;;;4.50;;
3006;SDS011;1513;47.650;10.720;2023-06-14T12:04:32;13.10;;;5.20;;
3006;SDS011;1513;47.650;10.720;2023-06-14T12:07:11;5.70;;;4.70;;
3006;SDS011;1513;47.650;10.720;2023-06-14T12:09:40;6.43;;;4.73;;
3006;SDS011;1513;47.650;10.720;2023-06-14T12:12:11;6.10;;;4.70;;
3006;SDS011;1513;47.650;10.720;2023-06-14T12:14:40;10.80;;;4.40;;
3006;SDS011;1513;47.650;10.720;2023-06-14T12:17:07;6.70;;;4.57;;
3006;SDS011;1513;47.650;10.720;2023-06-14T12:19:41;6.70;;;5.20;;
3006;SDS011;1513;47.650;10.720;2023-06-14T12:22:12;7.53;;;4.67;;
3006;SDS011;1513;47.650;10.720;2023-06-14T12:24:39;5.67;;;5.10;;
3006;SDS011;1513;47.650;10.720;2023-06-14T12:27:08;7.73;;;5.07;;
3006;SDS011;1513;47.650;10.720;2023-06-14T12:29:37;7.20;;;4.90;;
3006;SDS011;1513;47.650;10.720;2023-06-14T12:32:03;5.00;;;4.50;;
3006;SDS011;1513;47.650;10.720;2023-06-14T12:34:29;5.10;;;4.70;;
3006;SDS011;1513;47.650;10.720;2023-06-14T12:36:56;5.00;;;4.50;;
3006;SDS011;1513;47.650;10.720;2023-06-14T12:39:22;5.93;;;4.70;;
3006;SDS011;1513;47.650;10.720;2023-06-14T12:41:49;10.67;;;4.87;;
3006;SDS011;1513;47.650;10.720;2023-06-14T12:44:16;7.33;;;4.90;;
3006;SDS011;1513;47.650;10.720;2023-06-14T12:46:42;5.10;;;4.60;;
3006;SDS011;1513;47.650;10.720;2023-06-14T12:49:09;7.17;;;4.73;;
3006;SDS011;1513;47.650;10.720;2023-06-14T12:51:37;5.20;;;4.70;;
3006;SDS011;1513;47.650;10.720;2023-06-14T12:54:04;5.80;;;4.70;;
3006;SDS011;1513;47.650;10.720;2023-06-14T12:56:31;5.00;;;4.50;;
3006;SDS011;1513;47.650;10.720;2023-06-14T12:58:58;7.87;;;5.07;;
3006;SDS011;1513;47.650;10.720;2023-06-14T13:01:24;5.67;;;4.77;;
3006;SDS011;1513;47.650;10.720;2023-06-14T13:03:51;6.60;;;5.03;;
3006;SDS011;1513;47.650;10.720;2023-06-14T13:06:21;6.90;;;4.57;;
3006;SDS011;1513;47.650;10.720;2023-06-14T13:08:48;5.13;;;4.63;;
3006;SDS011;1513;47.650;10.720;2023-06-14T13:11:15;6.77;;;4.93;;
3006;SDS011;1513;47.650;10.720;2023-06-14T13:13:42;9.20;;;4.60;;
3006;SDS011;1513;47.650;10.720;2023-06-14T13:16:08;5.87;;;5.07;;
3006;SDS011;1513;47.650;10.720;2023-06-14T13:18:36;5.77;;;5.20;;
3006;SDS011;1513;47.650;10.720;2023-06-14T13:21:02;9.10;;;4.60;;
3006;SDS011;1513;47.650;10.720;2023-06-14T13:23:28;9.43;;;4.50;;
3006;SDS011;1513;47.650;10.720;2023-06-14T13:25:54;6.20;;;5.00;;
3006;SDS011;1513;47.650;10.720;2023-06-14T13:28:21;6.37;;;4.70;;
3006;SDS011;1513;47.650;10.720;2023-06-14T13:30:47;7.60;;;4.30;;
3006;SDS011;1513;47.650;10.720;2023-06-14T13:33:13;6.10;;;4.63;;
3006;SDS011;1513;47.650;10.720;2023-06-14T13:35:40;6.17;;;5.00;;
3006;SDS011;1513;47.650;10.720;2023-06-14T13:38:09;6.37;;;4.83;;
3006;SDS011;1513;47.650;10.720;2023-06-14T13:40:36;5.20;;;4.43;;
3006;SDS011;1513;47.650;10.720;2023-06-14T13:43:02;10.13;;;5.37;;
3006;SDS011;1513;47.650;10.720;2023-06-14T13:45:28;5.07;;;4.33;;
3006;SDS011;1513;47.650;10.720;2023-06-14T13:47:55;7.10;;;4.50;;
3006;SDS011;1513;47.650;10.720;2023-06-14T13:50:21;5.03;;;4.53;;
3006;SDS011;1513;47.650;10.720;2023-06-14T13:52:47;6.70;;;4.67;;
3006;SDS011;1513;47.650;10.720;2023-06-14T13:55:14;7.50;;;4.30;;
3006;SDS011;1513;47.650;10.720;2023-06-14T13:57:40;5.23;;;4.73;;
3006;SDS011;1513;47.650;10.720;2023-06-14T14:00:06;9.30;;;5.23;;
3006;SDS011;1513;47.650;10.720;2023-06-14T14:02:40;6.10;;;5.03;;
3006;SDS011;1513;47.650;10.720;2023-06-14T14:05:08;5.00;;;4.57;;
3006;SDS011;1513;47.650;10.720;2023-06-14T14:07:34;7.73;;;5.57;;
3006;SDS011;1513;47.650;10.720;2023-06-14T14:10:01;9.10;;;4.70;;
3006;SDS011;1513;47.650;10.720;2023-06-14T14:12:28;5.70;;;4.90;;
3006;SDS011;1513;47.650;10.720;2023-06-14T14:14:54;6.90;;;4.77;;
3006;SDS011;1513;47.650;10.720;2023-06-14T14:17:21;6.03;;;4.47;;
3006;SDS011;1513;47.650;10.720;2023-06-14T14:19:48;5.67;;;4.50;;
3006;SDS011;1513;47.650;10.720;2023-06-14T14:22:14;5.70;;;4.80;;
3006;SDS011;1513;47.650;10.720;2023-06-14T14:24:40;6.20;;;5.40;;
3006;SDS011;1513;47.650;10.720;2023-06-14T14:27:07;6.27;;;4.70;;
3006;SDS011;1513;47.650;10.720;2023-06-14T14:29:33;5.23;;;4.70;;
3006;SDS011;1513;47.650;10.720;2023-06-14T14:32:00;6.60;;;4.30;;
3006;SDS011;1513;47.650;10.720;2023-06-14T14:34:27;10.40;;;4.40;;
3006;SDS011;1513;47.650;10.720;2023-06-14T14:36:53;12.27;;;4.33;;
3006;SDS011;1513;47.650;10.720;2023-06-14T14:39:19;5.63;;;4.87;;
3006;SDS011;1513;47.650;10.720;2023-06-14T14:41:46;4.60;;;4.20;;
3006;SDS011;1513;47.650;10.720;2023-06-14T14:44:12;7.90;;;4.93;;
3006;SDS011;1513;47.650;10.720;2023-06-14T14:46:38;7.03;;;4.00;;
3006;SDS011;1513;47.650;10.720;2023-06-14T14:49:04;10.40;;;4.80;;
3006;SDS011;1513;47.650;10.720;2023-06-14T14:51:31;6.47;;;4.70;;
3006;SDS011;1513;47.650;10.720;2023-06-14T14:53:57;6.80;;;5.50;;
3006;SDS011;1513;47.650;10.720;2023-06-14T14:56:23;5.73;;;4.60;;
3006;SDS011;1513;47.650;10.720;2023-06-14T14:58:51;6.30;;;4.53;;
3006;SDS011;1513;47.650;10.720;2023-06-14T15:01:17;5.63;;;4.40;;
3006;SDS011;1513;47.650;10.720;2023-06-14T15:03:43;5.70;;;4.63;;
3006;SDS011;1513;47.650;10.720;2023-06-14T15:06:10;9.50;;;4.90;;
3006;SDS011;1513;47.650;10.720;2023-06-14T15:08:36;7.10;;;4.80;;
3006;SDS011;1513;47.650;10.720;2023-06-14T15:11:02;7.00;;;4.33;;
3006;SDS011;1513;47.650;10.720;2023-06-14T15:13:29;5.40;;;4.30;;
3006;SDS011;1513;47.650;10.720;2023-06-14T15:15:55;5.20;;;4.30;;
3006;SDS011;1513;47.650;10.720;2023-06-14T15:18:21;10.20;;;4.20;;